createdAt,value
2019-06-10T00:00:50.680Z,101971.80
2019-06-10T00:03:20.711Z,101969.14
2019-06-10T00:05:51.773Z,101967.38
2019-06-10T00:08:22.278Z,101959.89
2019-06-10T00:10:52.594Z,101965.63
2019-06-10T00:13:22.868Z,101969.16
2019-06-10T00:15:53.297Z,101973.59
2019-06-10T00:18:38.417Z,101969.61
2019-06-10T00:20:57.178Z,101967.41
2019-06-10T00:23:27.692Z,101970.95
2019-06-10T00:26:01.280Z,101964.80
2019-06-10T00:28:31.136Z,101961.27
2019-06-10T00:31:03.682Z,101958.20
2019-06-10T00:33:33.873Z,101950.70
2019-06-10T00:36:07.027Z,101950.73
2019-06-10T00:38:36.429Z,101945.87
2019-06-10T00:41:08.884Z,101933.55
2019-06-10T00:43:41.160Z,101934.43
2019-06-10T00:46:13.224Z,101930.06
2019-06-10T00:48:43.656Z,101934.05
2019-06-10T00:51:14.111Z,101930.52
2019-06-10T00:53:44.533Z,101925.65
2019-06-10T00:56:14.911Z,101917.31
2019-06-10T00:58:45.467Z,101924.38
2019-06-10T01:01:15.775Z,101923.49
2019-06-10T01:03:46.151Z,101918.64
2019-06-10T01:06:16.829Z,101912.48
2019-06-10T01:08:47.386Z,101907.21
2019-06-10T01:11:23.639Z,101901.05
2019-06-10T01:13:50.865Z,101899.73
2019-06-10T01:16:21.850Z,101897.98
2019-06-10T01:18:53.603Z,101896.20
2019-06-10T01:21:24.217Z,101891.39
2019-06-10T01:23:54.708Z,101883.45
2019-06-10T01:26:25.209Z,101882.98
2019-06-10T01:28:55.807Z,101867.59
2019-06-10T01:31:26.420Z,101863.61
2019-06-10T01:33:56.835Z,101850.81
2019-06-10T01:36:27.154Z,101860.94
2019-06-10T01:39:06.988Z,101863.59
2019-06-10T01:41:46.711Z,101858.30
2019-06-10T01:44:17.709Z,101862.27
2019-06-10T01:46:48.016Z,101855.66
2019-06-10T01:49:18.677Z,101850.80
2019-06-10T01:51:51.581Z,101844.64
2019-06-10T01:54:22.134Z,101838.03
2019-06-10T01:56:52.576Z,101828.33
2019-06-10T01:59:22.943Z,101827.91
2019-06-10T02:02:19.361Z,101826.14
2019-06-10T02:04:51.686Z,101827.02
2019-06-10T02:07:23.147Z,101823.50
2019-06-10T02:09:54.077Z,101820.81
2019-06-10T02:12:24.566Z,101812.02
2019-06-10T02:14:55.189Z,101801.44
2019-06-10T02:17:25.553Z,101802.75
2019-06-10T02:19:55.910Z,101790.44
2019-06-10T02:22:26.518Z,101782.05
2019-06-10T02:24:57.153Z,101771.95
2019-06-10T02:27:27.779Z,101769.31
2019-06-10T02:29:58.447Z,101763.16
2019-06-10T02:32:36.878Z,101764.45
2019-06-10T02:35:08.600Z,101752.55
2019-06-10T02:37:37.903Z,101751.67
2019-06-10T02:40:06.606Z,101742.00
2019-06-10T02:42:43.468Z,101744.20
2019-06-10T02:45:18.005Z,101741.98
2019-06-10T02:47:45.511Z,101735.37
2019-06-10T02:50:19.791Z,101736.66
2019-06-10T02:52:48.294Z,101733.60
2019-06-10T02:55:20.329Z,101727.86
2019-06-10T02:57:53.290Z,101723.90
2019-06-10T03:00:36.068Z,101725.22
2019-06-10T03:02:55.008Z,101721.70
2019-06-10T03:05:30.727Z,101723.89
2019-06-10T03:07:57.368Z,101716.84
2019-06-10T03:10:32.498Z,101713.33
2019-06-10T03:13:01.814Z,101713.75
2019-06-10T03:15:32.471Z,101715.52
2019-06-10T03:18:02.843Z,101719.03
2019-06-10T03:20:33.243Z,101712.84
2019-06-10T03:23:03.426Z,101713.27
2019-06-10T03:25:33.719Z,101719.42
2019-06-10T03:28:04.077Z,101719.84
2019-06-10T03:30:47.119Z,101715.42
2019-06-10T03:33:06.798Z,101707.91
2019-06-10T03:35:37.082Z,101703.50
2019-06-10T03:38:07.442Z,101703.50
2019-06-10T03:40:37.788Z,101703.05
2019-06-10T03:43:08.142Z,101695.53
2019-06-10T03:45:38.337Z,101695.53
2019-06-10T03:48:08.726Z,101695.56
2019-06-10T03:50:39.069Z,101698.63
2019-06-10T03:53:09.402Z,101701.27
2019-06-10T03:55:42.218Z,101692.02
2019-06-10T03:58:12.595Z,101700.81
2019-06-10T04:00:43.191Z,101695.08
2019-06-10T04:03:13.543Z,101699.49
2019-06-10T04:05:43.904Z,101695.08
2019-06-10T04:08:14.284Z,101695.95
2019-06-10T04:10:44.660Z,101693.30
2019-06-10T04:13:15.086Z,101696.70
2019-06-10T04:15:45.471Z,101694.97
2019-06-10T04:18:15.806Z,101687.03
2019-06-10T04:20:46.094Z,101684.80
2019-06-10T04:23:17.632Z,101679.92
2019-06-10T04:25:48.033Z,101675.50
2019-06-10T04:28:19.735Z,101682.52
2019-06-10T04:30:50.177Z,101669.30
2019-06-10T04:33:22.868Z,101674.09
2019-06-10T04:35:52.564Z,101670.03
2019-06-10T04:38:25.726Z,101662.53
2019-06-10T04:40:55.302Z,101673.98
2019-06-10T04:43:26.344Z,101666.20
2019-06-10T04:45:57.630Z,101663.92
2019-06-10T04:48:29.288Z,101673.59
2019-06-10T04:51:02.450Z,101672.16
2019-06-10T04:53:32.873Z,101677.34
2019-06-10T04:56:03.803Z,101668.45
2019-06-10T04:58:34.036Z,101671.01
2019-06-10T05:01:04.409Z,101663.86
2019-06-10T05:03:34.687Z,101664.66
2019-06-10T05:06:04.975Z,101669.43
2019-06-10T05:08:35.327Z,101667.09
2019-06-10T05:11:05.673Z,101653.69
2019-06-10T05:13:35.928Z,101653.53
2019-06-10T05:16:06.867Z,101651.14
2019-06-10T05:18:37.204Z,101649.11
2019-06-10T05:21:07.852Z,101646.69
2019-06-10T05:23:38.310Z,101642.13
2019-06-10T05:26:08.915Z,101640.28
2019-06-10T05:28:39.547Z,101638.77
2019-06-10T05:33:37.363Z,101629.95
2019-06-10T05:36:07.919Z,101640.46
2019-06-10T05:38:38.364Z,101634.59
2019-06-10T05:41:08.977Z,101632.30
2019-06-10T05:43:39.318Z,101639.32
2019-06-10T05:46:09.742Z,101637.52
2019-06-10T05:48:40.298Z,101631.70
2019-06-10T05:51:12.422Z,101635.53
2019-06-10T05:53:45.751Z,101631.03
2019-06-10T05:56:15.375Z,101634.84
2019-06-10T05:58:45.901Z,101627.98
2019-06-10T06:01:16.525Z,101627.80
2019-06-10T06:03:47.145Z,101620.46
2019-06-10T06:06:17.554Z,101630.44
2019-06-10T06:08:47.809Z,101624.90
2019-06-10T06:11:18.126Z,101616.65
2019-06-10T06:13:48.405Z,101615.97
2019-06-10T06:16:18.676Z,101611.86
2019-06-10T06:18:49.038Z,101604.39
2019-06-10T06:21:26.577Z,101601.50
2019-06-10T06:23:52.791Z,101596.29
2019-06-10T06:26:23.947Z,101601.31
2019-06-10T06:28:54.540Z,101590.24
2019-06-10T06:31:26.062Z,101592.39
2019-06-10T06:33:56.530Z,101589.53
2019-06-10T06:36:26.839Z,101589.39
2019-06-10T06:38:57.191Z,101584.70
2019-06-10T06:41:27.575Z,101579.32
2019-06-10T06:43:57.819Z,101576.63
2019-06-10T06:46:28.124Z,101576.08
2019-06-10T06:48:58.576Z,101579.11
2019-06-10T06:51:38.059Z,101576.83
2019-06-10T06:54:03.267Z,101571.84
2019-06-10T06:56:36.148Z,101569.99
2019-06-10T06:59:05.461Z,101569.93
2019-06-10T07:01:37.734Z,101567.73
2019-06-10T07:04:08.233Z,101568.38
2019-06-10T07:06:40.362Z,101567.70
2019-06-10T07:09:13.511Z,101565.16
2019-06-10T07:11:45.610Z,101558.23
2019-06-10T07:14:16.086Z,101564.33
2019-06-10T07:16:46.896Z,101563.56
2019-06-10T07:19:17.304Z,101557.85
2019-06-10T07:22:05.375Z,101555.80
2019-06-10T07:24:19.973Z,101547.59
2019-06-10T07:26:54.715Z,101552.67
2019-06-10T07:29:22.779Z,101550.44
2019-06-10T07:31:53.824Z,101545.50
2019-06-10T07:34:26.037Z,101544.92
2019-06-10T07:36:56.325Z,101546.31
2019-06-10T07:39:26.688Z,101541.08
2019-06-10T07:41:57.062Z,101539.87
2019-06-10T07:44:27.443Z,101535.59
2019-06-10T07:46:57.754Z,101524.02
2019-06-10T07:49:33.480Z,101532.58
2019-06-10T07:52:14.951Z,101523.59
2019-06-10T07:54:36.273Z,101530.29
2019-06-10T07:57:07.112Z,101535.89
2019-06-10T07:59:37.453Z,101538.89
2019-06-10T08:02:07.802Z,101539.73
2019-06-10T08:04:38.198Z,101543.75
2019-06-10T08:07:08.621Z,101536.68
2019-06-10T08:09:39.133Z,101526.47
2019-06-10T08:12:09.550Z,101532.17
2019-06-10T08:14:42.281Z,101516.13
2019-06-10T08:17:12.940Z,101520.06
2019-06-10T08:19:49.050Z,101518.17
2019-06-10T08:22:29.947Z,101504.70
2019-06-10T08:24:47.830Z,101503.53
2019-06-10T08:27:18.838Z,101503.59
2019-06-10T08:29:51.166Z,101495.78
2019-06-10T08:32:21.315Z,101507.09
2019-06-10T08:34:53.017Z,101506.77
2019-06-10T08:37:23.661Z,101497.79
2019-06-10T08:39:53.966Z,101485.38
2019-06-10T08:42:24.363Z,101492.52
2019-06-10T08:44:54.739Z,101498.26
2019-06-10T08:47:25.192Z,101499.19
2019-06-10T08:49:57.529Z,101501.75
2019-06-10T08:52:27.854Z,101495.74
2019-06-10T08:54:58.204Z,101491.63
2019-06-10T08:57:28.552Z,101493.12
2019-06-10T08:59:58.865Z,101493.30
2019-06-10T09:02:29.209Z,101486.20
2019-06-10T09:04:59.494Z,101476.95
2019-06-10T09:07:32.179Z,101483.17
2019-06-10T09:10:03.015Z,101487.64
2019-06-10T09:12:36.631Z,101476.55
2019-06-10T09:15:06.079Z,101477.33
2019-06-10T09:17:36.548Z,101481.89
2019-06-10T09:20:08.171Z,101480.63
2019-06-10T09:22:39.811Z,101480.69
2019-06-10T09:25:13.608Z,101471.11
2019-06-10T09:27:47.479Z,101463.57
2019-06-10T09:30:16.347Z,101461.71
2019-06-10T09:32:51.143Z,101463.51
2019-06-10T09:35:23.359Z,101452.61
2019-06-10T09:37:55.675Z,101453.84
2019-06-10T09:40:28.404Z,101450.16
2019-06-10T09:42:58.895Z,101444.95
2019-06-10T09:45:29.297Z,101448.41
2019-06-10T09:48:01.121Z,101449.97
2019-06-10T09:50:48.556Z,101440.92
2019-06-10T09:53:28.955Z,101440.75
2019-06-10T09:55:49.697Z,101437.26
2019-06-10T09:58:18.787Z,101445.46
2019-06-10T10:00:56.967Z,101440.37
2019-06-10T10:03:24.048Z,101434.34
2019-06-10T10:06:08.116Z,101426.98
2019-06-10T10:08:26.520Z,101428.14
2019-06-10T10:10:58.950Z,101417.83
2019-06-10T10:13:29.241Z,101413.44
2019-06-10T10:15:59.629Z,101413.13
2019-06-10T10:18:32.604Z,101412.09
2019-06-10T10:21:03.790Z,101408.16
2019-06-10T10:23:50.141Z,101403.34
2019-06-10T10:26:07.036Z,101413.73
2019-06-10T10:28:37.486Z,101416.34
2019-06-10T10:31:07.890Z,101415.28
2019-06-10T10:33:38.334Z,101415.61
2019-06-10T10:36:08.727Z,101416.50
2019-06-10T10:38:39.066Z,101411.16
2019-06-10T10:41:09.453Z,101413.14
2019-06-10T10:43:39.836Z,101403.02
2019-06-10T10:46:13.490Z,101401.30
2019-06-10T10:48:42.951Z,101407.36
2019-06-10T10:51:13.568Z,101406.59
2019-06-10T10:53:48.405Z,101405.77
2019-06-10T10:56:16.038Z,101392.84
2019-06-10T10:58:47.669Z,101391.47
2019-06-10T11:01:18.542Z,101388.25
2019-06-10T11:03:50.077Z,101370.45
2019-06-10T11:06:23.177Z,101374.09
2019-06-10T11:08:55.845Z,101361.28
2019-06-10T11:11:27.619Z,101357.12
2019-06-10T11:14:00.202Z,101360.13
2019-06-10T11:16:33.045Z,101347.94
2019-06-10T11:19:03.450Z,101343.12
2019-06-10T11:21:33.836Z,101346.98
2019-06-10T11:24:04.882Z,101333.98
2019-06-10T11:26:35.407Z,101354.38
2019-06-10T11:29:07.017Z,101354.06
2019-06-10T11:31:37.419Z,101364.37
2019-06-10T11:34:07.828Z,101354.05
2019-06-10T11:36:38.232Z,101353.75
2019-06-10T11:39:09.708Z,101337.56
2019-06-10T11:41:40.134Z,101335.81
2019-06-10T11:44:10.561Z,101339.06
2019-06-10T11:46:42.970Z,101343.09
2019-06-10T11:49:13.036Z,101338.43
2019-06-10T11:51:43.396Z,101344.81
2019-06-10T11:54:15.807Z,101346.06
2019-06-10T11:56:47.666Z,101347.30
2019-06-10T11:59:18.257Z,101344.84
2019-06-10T12:01:50.270Z,101346.53
2019-06-10T12:04:21.642Z,101339.91
2019-06-10T12:06:53.125Z,101331.16
2019-06-10T12:09:23.551Z,101333.62
2019-06-10T12:11:56.238Z,101332.36
2019-06-10T12:14:27.187Z,101330.28
2019-06-10T12:17:24.920Z,101343.97
2019-06-10T12:19:29.716Z,101331.93
2019-06-10T12:22:06.932Z,101333.84
2019-06-10T12:24:33.949Z,101321.12
2019-06-10T12:27:05.267Z,101329.95
2019-06-10T12:29:35.692Z,101324.53
2019-06-10T12:32:07.730Z,101317.92
2019-06-10T12:34:38.371Z,101310.57
2019-06-10T12:37:15.762Z,101309.92
2019-06-10T12:39:43.638Z,101320.32
2019-06-10T12:42:14.425Z,101305.27
2019-06-10T12:44:45.028Z,101313.25
2019-06-10T12:47:15.533Z,101302.98
2019-06-10T12:49:45.912Z,101305.27
2019-06-10T12:52:16.464Z,101312.86
2019-06-10T12:54:46.857Z,101319.69
2019-06-10T12:57:18.158Z,101307.55
2019-06-10T12:59:48.637Z,101298.73
2019-06-10T13:02:24.737Z,101294.41
2019-06-10T13:04:52.306Z,101293.04
2019-06-10T13:07:24.544Z,101293.91
2019-06-10T13:09:57.776Z,101298.73
2019-06-10T13:12:33.241Z,101300.18
2019-06-10T13:15:06.736Z,101302.79
2019-06-10T13:17:35.168Z,101296.89
2019-06-10T13:20:08.384Z,101302.94
2019-06-10T13:22:38.900Z,101298.25
2019-06-10T13:25:13.468Z,101291.25
2019-06-10T13:27:43.934Z,101284.52
2019-06-10T13:30:14.590Z,101287.21
2019-06-10T13:32:45.021Z,101283.38
2019-06-10T13:35:16.016Z,101281.05
2019-06-10T13:37:46.377Z,101276.98
2019-06-10T13:40:17.673Z,101268.66
2019-06-10T13:42:48.694Z,101270.76
2019-06-10T13:45:22.391Z,101269.16
2019-06-10T13:47:53.069Z,101266.20
2019-06-10T13:50:25.011Z,101263.35
2019-06-10T13:52:55.799Z,101256.28
2019-06-10T13:55:26.223Z,101254.80
2019-06-10T13:57:56.615Z,101247.94
2019-06-10T14:00:41.666Z,101252.98
2019-06-10T14:03:00.032Z,101250.03
2019-06-10T14:05:34.056Z,101252.38
2019-06-10T14:08:05.304Z,101245.73
2019-06-10T14:10:34.616Z,101235.19
2019-06-10T14:13:07.936Z,101231.36
2019-06-10T14:15:37.824Z,101236.36
2019-06-10T14:18:10.088Z,101231.49
2019-06-10T14:20:44.021Z,101235.15
2019-06-10T14:23:17.398Z,101230.42
2019-06-10T14:25:45.563Z,101229.45
2019-06-10T14:28:37.788Z,101229.58
2019-06-10T14:30:48.779Z,101231.03
2019-06-10T14:33:19.142Z,101224.72
2019-06-10T14:35:49.436Z,101216.69
2019-06-10T14:38:22.031Z,101205.95
2019-06-10T14:40:52.519Z,101208.05
2019-06-10T14:43:23.614Z,101204.59
2019-06-10T14:45:54.653Z,101200.91
2019-06-10T14:48:24.934Z,101200.88
2019-06-10T14:50:55.301Z,101189.06
2019-06-10T14:53:25.570Z,101189.20
2019-06-10T14:55:55.996Z,101186.09
2019-06-10T14:58:26.341Z,101182.66
2019-06-10T15:00:56.577Z,101181.20
2019-06-10T15:03:27.964Z,101176.23
2019-06-10T15:05:58.340Z,101178.83
2019-06-10T15:08:28.891Z,101185.16
2019-06-10T15:10:59.596Z,101174.91
2019-06-10T15:13:32.603Z,101174.77
2019-06-10T15:16:04.284Z,101165.35
2019-06-10T15:18:36.275Z,101160.48
2019-06-10T15:21:08.678Z,101161.38
2019-06-10T15:23:39.274Z,101151.39
2019-06-10T15:26:14.408Z,101157.26
2019-06-10T15:28:44.121Z,101150.95
2019-06-10T15:31:16.393Z,101158.11
2019-06-10T15:33:46.989Z,101164.58
2019-06-10T15:36:17.536Z,101161.69
2019-06-10T15:38:47.797Z,101165.48
2019-06-10T15:41:20.300Z,101168.07
2019-06-10T15:43:50.301Z,101162.97
2019-06-10T15:46:20.899Z,101162.25
2019-06-10T15:48:53.850Z,101159.33
2019-06-10T15:51:26.157Z,101159.89
2019-06-10T15:53:55.940Z,101156.17
2019-06-10T15:56:37.600Z,101164.06
2019-06-10T15:58:58.287Z,101158.11
2019-06-10T16:01:28.742Z,101149.60
2019-06-10T16:03:59.108Z,101145.09
2019-06-10T16:06:29.442Z,101141.06
2019-06-10T16:08:59.854Z,101147.16
2019-06-10T16:11:32.991Z,101148.72
2019-06-10T16:14:04.012Z,101149.38
2019-06-10T16:16:34.589Z,101134.69
2019-06-10T16:19:05.340Z,101133.84
2019-06-10T16:21:36.411Z,101122.64
2019-06-10T16:24:07.536Z,101116.90
2019-06-10T16:26:38.444Z,101121.27
2019-06-10T16:29:08.903Z,101121.11
2019-06-10T16:34:08.292Z,101126.58
2019-06-10T16:36:38.701Z,101119.81
2019-06-10T16:39:09.354Z,101117.67
2019-06-10T16:41:39.770Z,101111.79
2019-06-10T16:44:10.183Z,101115.64
2019-06-10T16:46:42.928Z,101112.88
2019-06-10T16:49:12.968Z,101118.64
2019-06-10T16:51:43.339Z,101105.85
2019-06-10T16:54:13.657Z,101111.81
2019-06-10T16:56:43.891Z,101110.79
2019-06-10T16:59:14.086Z,101098.31
2019-06-10T17:01:44.515Z,101098.30
2019-06-10T17:04:14.831Z,101098.70
2019-06-10T17:06:45.138Z,101093.03
2019-06-10T17:09:15.543Z,101087.02
2019-06-10T17:11:45.822Z,101093.98
2019-06-10T17:14:16.102Z,101087.08
2019-06-10T17:16:46.567Z,101085.70
2019-06-10T17:19:16.891Z,101092.19
2019-06-10T17:21:47.161Z,101081.73
2019-06-10T17:24:18.950Z,101074.96
2019-06-10T17:26:49.251Z,101070.59
2019-06-10T17:29:19.739Z,101077.42
2019-06-10T17:31:50.031Z,101061.27
2019-06-10T17:34:22.979Z,101062.31
2019-06-10T17:36:53.850Z,101065.30
2019-06-10T17:39:27.976Z,101071.23
2019-06-10T17:41:58.830Z,101064.22
2019-06-10T17:44:30.768Z,101060.48
2019-06-10T17:47:02.507Z,101062.38
2019-06-10T17:49:35.269Z,101062.14
2019-06-10T17:52:06.988Z,101063.16
2019-06-10T17:54:37.639Z,101072.52
2019-06-10T17:57:08.095Z,101080.45
2019-06-10T17:59:38.448Z,101082.25
2019-06-10T18:02:09.127Z,101085.08
2019-06-10T18:04:41.933Z,101078.42
2019-06-10T18:07:13.081Z,101073.14
2019-06-10T18:09:43.749Z,101076.13
2019-06-10T18:12:14.345Z,101084.53
2019-06-10T18:14:45.156Z,101080.89
2019-06-10T18:17:15.886Z,101081.74
2019-06-10T18:19:46.606Z,101085.19
2019-06-10T18:22:17.420Z,101088.48
2019-06-10T18:24:48.039Z,101089.52
2019-06-10T18:27:18.755Z,101107.08
2019-06-10T18:29:49.382Z,101108.81
2019-06-10T18:32:22.477Z,101099.81
2019-06-10T18:34:52.490Z,101091.70
2019-06-10T18:37:23.345Z,101087.95
2019-06-10T18:39:54.100Z,101082.65
2019-06-10T18:42:26.478Z,101078.23
2019-06-10T18:44:57.217Z,101064.91
2019-06-10T18:47:27.776Z,101075.08
2019-06-10T18:49:58.281Z,101065.52
2019-06-10T18:52:32.653Z,101067.98
2019-06-10T18:55:03.431Z,101059.55
2019-06-10T18:57:36.163Z,101047.14
2019-06-10T19:00:13.713Z,101054.95
2019-06-10T19:02:41.084Z,101063.45
2019-06-10T19:07:52.890Z,101072.72
2019-06-10T19:10:24.362Z,101079.98
2019-06-10T19:12:55.343Z,101074.92
2019-06-10T19:15:25.874Z,101068.69
2019-06-10T19:17:56.567Z,101075.49
2019-06-10T19:20:27.318Z,101073.19
2019-06-10T19:22:57.945Z,101067.86
2019-06-10T19:25:28.482Z,101070.16
2019-06-10T19:27:59.114Z,101067.59
2019-06-10T19:30:33.490Z,101067.23
2019-06-10T19:33:04.965Z,101073.14
2019-06-10T19:35:36.984Z,101078.80
2019-06-10T19:38:07.980Z,101085.77
2019-06-10T19:40:38.537Z,101076.59
2019-06-10T19:43:09.281Z,101072.59
2019-06-10T19:45:42.443Z,101095.81
2019-06-10T19:48:12.518Z,101098.55
2019-06-10T19:50:48.128Z,101099.76
2019-06-10T19:53:15.244Z,101103.36
2019-06-10T19:55:46.122Z,101106.70
2019-06-10T19:58:16.863Z,101111.92
2019-06-10T20:00:51.122Z,101114.91
2019-06-10T20:03:22.164Z,101119.92
2019-06-10T20:08:34.577Z,101106.92
2019-06-10T20:11:05.486Z,101116.45
2019-06-10T20:13:36.476Z,101122.23
2019-06-10T20:16:07.530Z,101127.95
2019-06-10T20:18:38.280Z,101135.04
2019-06-10T20:21:09.693Z,101136.41
2019-06-10T20:23:42.726Z,101140.92
2019-06-10T20:26:12.547Z,101143.70
2019-06-10T20:28:43.776Z,101152.70
2019-06-10T20:31:15.604Z,101157.71
2019-06-10T20:33:46.184Z,101155.13
2019-06-10T20:36:22.528Z,101151.68
2019-06-10T20:38:50.633Z,101146.11
2019-06-10T20:41:21.462Z,101138.21
2019-06-10T20:43:56.051Z,101129.83
2019-06-10T20:46:26.749Z,101128.55
2019-06-10T20:48:57.414Z,101124.59
2019-06-10T20:51:27.988Z,101123.48
2019-06-10T20:53:58.822Z,101127.70
2019-06-10T20:56:29.415Z,101118.58
2019-06-10T20:59:00.039Z,101120.64
2019-06-10T21:01:33.055Z,101112.52
2019-06-10T21:04:03.817Z,101108.36
2019-06-10T21:06:36.436Z,101107.25
2019-06-10T21:09:10.123Z,101106.42
2019-06-10T21:11:45.136Z,101110.05
2019-06-10T21:14:12.970Z,101105.73
2019-06-10T21:19:14.727Z,101094.60
2019-06-10T21:21:47.176Z,101108.07
2019-06-10T21:24:17.690Z,101109.04
2019-06-10T21:26:49.718Z,101106.84
2019-06-10T21:29:20.732Z,101102.39
2019-06-10T21:31:54.505Z,101100.20
2019-06-10T21:34:23.379Z,101091.87
2019-06-10T21:36:54.337Z,101088.84
2019-06-10T21:39:25.077Z,101088.84
2019-06-10T21:41:55.968Z,101093.34
2019-06-10T21:44:26.310Z,101096.86
2019-06-10T21:46:56.704Z,101090.78
2019-06-10T21:49:27.108Z,101086.41
2019-06-10T21:51:57.438Z,101090.13
2019-06-10T21:54:27.733Z,101093.39
2019-06-10T21:56:58.008Z,101100.99
2019-06-10T21:59:28.201Z,101094.88
2019-06-10T22:01:58.462Z,101098.44
2019-06-10T22:04:28.807Z,101085.72
2019-06-10T22:06:59.145Z,101080.44
2019-06-10T22:09:29.504Z,101083.20
2019-06-10T22:11:59.761Z,101073.94
2019-06-10T22:14:30.085Z,101069.92
2019-06-10T22:17:03.592Z,101065.94
2019-06-10T22:19:33.949Z,101057.14
2019-06-10T22:22:04.361Z,101054.98
2019-06-10T22:24:34.663Z,101056.78
2019-06-10T22:27:05.506Z,101058.03
2019-06-10T22:29:35.891Z,101065.58
2019-06-10T22:32:07.098Z,101056.31
2019-06-10T22:34:37.476Z,101061.22
2019-06-10T22:37:07.863Z,101053.26
2019-06-10T22:39:38.117Z,101056.31
2019-06-10T22:42:08.366Z,101045.72
2019-06-10T22:44:38.617Z,101038.66
2019-06-10T22:47:08.983Z,101041.80
2019-06-10T22:49:39.222Z,101047.55
2019-06-10T22:52:09.611Z,101048.95
2019-06-10T22:54:42.792Z,101039.65
2019-06-10T22:57:12.985Z,101027.70
2019-06-10T22:59:43.193Z,101021.56
2019-06-10T23:02:13.473Z,101028.66
2019-06-10T23:04:43.855Z,101023.84
2019-06-10T23:07:14.233Z,101017.30
2019-06-10T23:09:44.605Z,101024.05
2019-06-10T23:12:14.951Z,101022.75
2019-06-10T23:14:45.260Z,101033.84
2019-06-10T23:17:15.649Z,101038.72
2019-06-10T23:19:46.005Z,101041.80
2019-06-10T23:22:16.288Z,101034.73
2019-06-10T23:24:46.656Z,101040.05
2019-06-10T23:27:17.049Z,101041.84
2019-06-10T23:29:47.347Z,101042.80
2019-06-10T23:32:17.651Z,101042.44
2019-06-10T23:34:47.994Z,101049.11
2019-06-10T23:37:18.350Z,101034.67
2019-06-10T23:39:48.645Z,101028.20
2019-06-10T23:42:18.937Z,101032.85
2019-06-10T23:44:49.122Z,101028.64
2019-06-10T23:47:19.426Z,101037.20
2019-06-10T23:49:49.694Z,101026.74
2019-06-10T23:52:22.050Z,101022.49
2019-06-10T23:54:53.231Z,101020.44
2019-06-10T23:57:24.481Z,101025.53
2019-06-10T23:59:55.611Z,101025.59
